Mantech International Corp-A (MANT) Latest Bloomsberg Price


Mffais Ranking #1874 Overall / #30 Industry
Industry: It Services

Number of Companies: 122 (Ranking #1404 Overall/#19 Industry)
Inflow: $ 28,468 (K) (Ranking #1589 Overall/#23 Industry)
Outflow: $ -38,856 (K)
Mffais Flow: $ -10,388 (K) (Ranking #1874 Overall/#30 Industry)


Receive a FREE weekly executive review of stocks moving into the top 10, taking the top industy spot or moving up within their industry. Sent directly to your Inbox every Saturday. Sign up today and get last week's review immediately sent to you.

We value and respect your privacy. Please read our Terms and Conditions which states our firm commitment to your privacy. Your email address will not be shared with a third party, nor will it be sold or used for purposes other than subscription for the weekly review.

Owner CPOR Shares Action Qty Chg Invested (K) Total Current Value (K)
Robeco Institutional Asset Management B V 2016-09-30 402,955 Added More 183,657 $ 7,252 $ 15,912
Dimensional Fund Advisors Lp 2016-09-30 2,069,482 Added More 100,864 $ 3,983 $ 81,723
Wbi Investments Inc 2016-09-30 67,129 New Holding 67,129 $ 2,650 $ 2,650
Martingale Asset Management L P 2016-09-30 122,899 Added More 66,800 $ 2,637 $ 4,853
Bessemer Group Inc 2016-09-30 37,388 Added More 37,200 $ 1,469 $ 1,476
Cookson Peirce Co Inc 2016-09-30 33,420 New Holding 33,420 $ 1,319 $ 1,319
Spark Investment Management Llc 2016-09-30 29,400 New Holding 29,400 $ 1,161 $ 1,161
Algert Global Llc 2016-09-30 35,604 Added More 23,507 $ 928 $ 1,406
Ahl Partners Llp 2016-09-30 17,348 New Holding 17,348 $ 685 $ 685
Kcg Holdings Inc 2016-09-30 16,715 New Holding 16,715 $ 660 $ 660
Legal General Group Plc 2016-09-30 22,832 Added More 16,538 $ 653 $ 901
Meeder Asset Management Inc 2016-09-30 14,319 New Holding 14,319 $ 565 $ 565
Penserra Capital Management Llc 2016-09-30 304,490 Added More 12,039 $ 475 $ 12,024
Counsel Portfolio Services Inc 2016-06-30 12,031 New Holding 12,031 $ 455 $ 455
Lucus Advisors Llc 2016-09-30 10,477 New Holding 10,477 $ 413 $ 413
Oshaughnessy Asset Management Llc 2016-09-30 22,634 Added More 10,367 $ 409 $ 893
Gotham Asset Management Llc 2016-09-30 9,114 New Holding 9,114 $ 359 $ 359
Cubist Systematic Strategies Llc 2016-09-30 8,001 New Holding 8,001 $ 315 $ 315
Sg Americas Securities Llc 2016-09-30 6,618 New Holding 6,618 $ 261 $ 261
Smithfield Trust Co 2016-09-30 5,600 New Holding 5,600 $ 221 $ 221
Verition Fund Management Llc 2016-09-30 5,410 New Holding 5,410 $ 213 $ 213
Jane Street Group Llc 2016-09-30 5,324 New Holding 5,324 $ 210 $ 210
Clinton Group Inc 2016-09-30 12,553 Added More 5,095 $ 201 $ 495
Alambic Investment Management L P 2016-09-30 29,050 Added More 4,600 $ 181 $ 1,147
C M Bidwell Associates Ltd 2016-09-30 12,385 Added More 4,420 $ 174 $ 489
Aperio Group Llc 2016-09-30 13,441 Added More 3,535 $ 139 $ 530
New York State Common Retirement Fund 2016-09-30 390,284 Added More 1,500 $ 59 $ 15,412
Rhumbline Advisers 2016-09-30 37,925 Added More 1,490 $ 58 $ 1,497
Panagora Asset Management Inc 2016-09-30 4,706 Added More 1,253 $ 49 $ 185
Public Sector Pension Investment Board 2016-09-30 17,766 Added More 1,000 $ 39 $ 701
Thrivent Financial For Lutherans 2016-09-30 12,790 Added More 920 $ 36 $ 505
State Of Tennessee Treasury Department 2016-09-30 19,567 Added More 825 $ 32 $ 772
Brown Brothers Harriman Co 2016-09-30 800 New Holding 800 $ 31 $ 31
Comerica Bank 2016-09-30 25,142 Added More 662 $ 26 $ 992
California State Teachers Retirement System 2016-09-30 52,336 Added More 500 $ 19 $ 2,066
Mason Street Advisors Llc 2016-09-30 5,156 Added More 362 $ 14 $ 203
Northern Trust Corp 2016-09-30 636,879 Added More 353 $ 13 $ 25,150
Texas Permanent School Fund 2016-09-30 19,078 Added More 328 $ 12 $ 753
Keybank National Association Oh 2016-09-30 35,500 Added More 300 $ 11 $ 1,401
Acrospire Investment Management Llc 2016-09-30 2,900 Added More 200 $ 7 $ 114
Arizona State Retirement System 2016-09-30 12,971 Added More 200 $ 7 $ 512
Blackrock Inc 2016-09-30 1,979 Added More 194 $ 7 $ 78
Amg National Trust Bank 2016-09-30 12,990 Added More 167 $ 6 $ 512
Zurcher Kantonalbank Zurich Cantonalbank 2016-09-30 825 Added More 150 $ 5 $ 32
Cutler Group Lp 2016-09-30 100 New Holding 100 $ 3 $ 3
Springbok Capital Management Llc 2016-09-30 2,100 Added More 100 $ 3 $ 82
American International Group Inc 2016-09-30 18,436 Added More 75 $ 2 $ 728
Pinebridge Investments L P 2016-09-30 3,184 Added More 74 $ 2 $ 125
Ls Investment Advisors Llc 2016-09-30 902 Added More 64 $ 2 $ 35
Blackrock Investment Management Llc 2016-09-30 113,105 Added More 59 $ 2 $ 4,466
Hanseatic Management Services Inc 2016-09-30 48 New Holding 48 $ 1 $ 1
Advisor Group Inc 2016-09-30 2,113 Added More 45 $ 1 $ 83
Arrowpoint Asset Management Llc 2016-09-30 33 New Holding 33 $ 1 $ 1
Washington Trust Bank 2016-09-30 30 New Holding 30 $ 1 $ 1
Advisory Services Network Llc 2016-09-30 88 Added More 26 $ 1 $ 3
Next Financial Group Inc 2016-09-30 515 Added More 15 $ 0 $ 20
Cable Hill Partners Llc 2016-09-30 72 No Change 0 $ 0 $ 2
Teachers Retirement System Of The State Of Kentucky 2016-09-30 8,600 No Change 0 $ 0 $ 339
Sit Investment Associates Inc 2016-09-30 22,050 No Change 0 $ 0 $ 870
Hsbc Holdings Plc 2016-09-30 6,264 No Change 0 $ 0 $ 247
Connable Office Inc 2016-09-30 7,684 No Change 0 $ 0 $ 303
Nisa Investment Advisors Llc 2016-09-30 500 No Change 0 $ 0 $ 19
Re Advisers Corp 2016-09-30 1,416,170 No Change 0 $ 0 $ 55,924
Mufg Americas Holdings Corp 2016-09-30 464 No Change 0 $ 0 $ 18
Thompson Davis Co Inc 2016-09-30 540 No Change 0 $ 0 $ 21
Diam Co Ltd 2016-09-30 50,406 No Change 0 $ 0 $ 1,990
Fuller Thaler Asset Management Inc 2016-09-30 1,000 No Change 0 $ 0 $ 39
Bridgeway Capital Management Inc 2016-09-30 187,932 No Change 0 $ 0 $ 7,421
Sheets Smith Wealth Management 2016-09-30 6,395 No Change 0 $ 0 $ 252
Hillsdale Investment Management Inc 2016-09-30 11,600 No Change 0 $ 0 $ 458
Kbc Group Nv 2016-09-30 7,124 No Change 0 $ 0 $ 281
Msi Financial Services Inc 2016-09-30 100 No Change 0 $ 0 $ 3
Chevy Chase Trust Holdings Inc 2016-09-30 18,325 No Change 0 $ 0 $ 723
Qs Investors Llc 2016-09-30 31,194 No Change 0 $ 0 $ 1,231
Horizon Kinetics Llc 2016-09-30 25,000 No Change 0 $ 0 $ 987
South Dakota Investment Council 2016-09-30 138,950 No Change 0 $ 0 $ 5,487
Creative Planning 2016-09-30 2 No Change 0 $ 0 $ 0
Capital Impact Advisors Llc 2016-09-30 25,422 No Change 0 $ 0 $ 1,003
Ifp Advisors Inc 2016-09-30 500 No Change 0 $ 0 $ 19
Quadrant Capital Group Llc 2016-09-30 36 No Change 0 $ 0 $ 1
Zions Bancorporation 2016-09-30 0 Sold All -1 $ -0 $ 0
Integrated Investment Consultants Llc 2016-09-30 3,887 Sold Some -4 $ -0 $ 153
Ladenburg Thalmann Financial Services Inc 2016-09-30 295 Sold Some -8 $ -0 $ 11
Sterling Capital Management Llc 2016-09-30 20,904 Sold Some -38 $ -1 $ 825
Raymond James Financial Services Advisors Inc 2016-09-30 9,811 Sold Some -54 $ -2 $ 387
New York State Teachers Retirement System 2016-09-30 73,614 Sold Some -100 $ -3 $ 2,907
Us Bancorp De 2016-09-30 21,410 Sold Some -141 $ -5 $ 845
Capstone Asset Management Co 2016-09-30 10,546 Sold Some -210 $ -8 $ 416
Teachers Advisors Inc 2016-09-30 38,119 Sold Some -221 $ -8 $ 1,505
Chicago Equity Partners Llc 2016-09-30 42,620 Sold Some -340 $ -13 $ 1,683
Nationwide Fund Advisors 2016-09-30 43,433 Sold Some -595 $ -23 $ 1,715
Pnc Financial Services Group Inc 2016-09-30 10,397 Sold Some -620 $ -24 $ 410
Gsa Capital Partners Llp 2016-09-30 19,031 Sold Some -800 $ -31 $ 751
Argyle Capital Management Inc 2016-09-30 33,200 Sold Some -800 $ -31 $ 1,311
Alpha Windward Llc 2016-09-30 10,800 Sold Some -1,020 $ -40 $ 426
Jacobs Levy Equity Management Inc 2016-09-30 65,273 Sold Some -1,200 $ -47 $ 2,577
Swiss National Bank 2016-09-30 40,087 Sold Some -1,500 $ -59 $ 1,583
Strs Ohio 2016-09-30 21,600 Sold Some -1,500 $ -59 $ 852
West Coast Financial Llc 2016-09-30 85,703 Sold Some -1,798 $ -71 $ 3,384
Envestnet Asset Management Inc 2016-09-30 1,661 Sold Some -1,845 $ -72 $ 65
Teacher Retirement System Of Texas 2016-09-30 0 Sold All -3,406 $ -134 $ 0
Netols Asset Management Inc 2016-09-30 236,851 Sold Some -4,931 $ -194 $ 9,353
Systematic Financial Management Lp 2016-09-30 43,915 Sold Some -5,015 $ -198 $ 1,734
Bayesian Capital Management Lp 2016-09-30 0 Sold All -5,700 $ -225 $ 0
Parametric Portfolio Associates Llc 2016-09-30 118,265 Sold Some -5,930 $ -234 $ 4,670
Tudor Investment Corp Et Al 2016-09-30 0 Sold All -6,775 $ -267 $ 0
Profund Advisors Llc 2016-09-30 0 Sold All -7,698 $ -303 $ 0
Denver Investment Advisors Llc 2016-09-30 324,590 Sold Some -9,391 $ -370 $ 12,818
Coe Capital Management Llc 2016-09-30 0 Sold All -17,175 $ -678 $ 0
Dean Capital Management 2016-09-30 13,738 Sold Some -19,420 $ -766 $ 542
Guggenheim Capital Llc 2016-09-30 136,732 Sold Some -21,005 $ -829 $ 5,399
Hutchin Hill Capital Lp 2016-09-30 0 Sold All -24,800 $ -979 $ 0
Chartwell Investment Partners Llc 2016-09-30 362,340 Sold Some -26,425 $ -1,043 $ 14,308
Tfs Capital Llc 2016-09-30 0 Sold All -29,094 $ -1,148 $ 0
Rk Capital Management Llc 2016-09-30 161,539 Sold Some -37,400 $ -1,476 $ 6,379
Convergence Investment Partners Llc 2016-09-30 12,267 Sold Some -38,065 $ -1,503 $ 484
Putnam Investments Llc 2016-09-30 0 Sold All -47,741 $ -1,885 $ 0
Dean Investment Associates Llc 2016-09-30 42,765 Sold Some -50,615 $ -1,998 $ 1,688
Axa 2016-09-30 16,900 Sold Some -55,100 $ -2,175 $ 667
Earnest Partners Llc 2016-09-30 1,478,659 Sold Some -82,443 $ -3,255 $ 58,392
Emerald Acquisition Ltd 2016-09-30 397,653 Sold Some -230,155 $ -9,088 $ 15,703
Heartland Advisors Inc 2016-09-30 465,291 Sold Some -242,879 $ -9,591 $ 18,374